createdAt,value
2018-08-12T00:00:53.041Z,0.00
2018-08-12T00:01:59.599Z,0.00
2018-08-12T00:03:04.099Z,0.00
2018-08-12T00:04:09.619Z,0.00
2018-08-12T00:05:16.114Z,0.00
2018-08-12T00:06:20.606Z,0.00
2018-08-12T00:07:27.152Z,0.00
2018-08-12T00:08:31.632Z,0.00
2018-08-12T00:09:37.164Z,0.00
2018-08-12T00:10:43.693Z,0.00
2018-08-12T00:11:48.202Z,0.00
2018-08-12T00:12:54.710Z,0.00
2018-08-12T00:13:59.200Z,0.00
2018-08-12T00:15:04.783Z,0.00
2018-08-12T00:16:11.254Z,0.00
2018-08-12T00:17:15.764Z,0.00
2018-08-12T00:18:22.300Z,0.00
2018-08-12T00:19:26.777Z,0.00
2018-08-12T00:20:32.290Z,0.00
2018-08-12T00:21:38.808Z,0.00
2018-08-12T00:22:43.320Z,0.00
2018-08-12T00:23:49.860Z,0.00
2018-08-12T00:24:54.343Z,0.00
2018-08-12T00:25:59.851Z,0.00
2018-08-12T00:27:06.378Z,0.00
2018-08-12T00:28:10.887Z,0.00
2018-08-12T00:29:17.414Z,0.00
2018-08-12T00:30:21.926Z,0.00
2018-08-12T00:31:27.419Z,0.00
2018-08-12T00:32:33.956Z,0.00
2018-08-12T00:33:38.462Z,0.00
2018-08-12T00:34:44.999Z,0.00
2018-08-12T00:35:49.481Z,0.00
2018-08-12T00:36:54.973Z,0.00
2018-08-12T00:38:01.510Z,0.00
2018-08-12T00:39:06.020Z,0.00
2018-08-12T00:40:12.548Z,0.00
2018-08-12T00:41:17.046Z,0.00
2018-08-12T00:42:22.545Z,0.00
2018-08-12T00:43:29.092Z,0.00
2018-08-12T00:44:33.587Z,0.00
2018-08-12T00:45:40.113Z,0.00
2018-08-12T00:46:44.617Z,0.00
2018-08-12T00:47:50.114Z,0.00
2018-08-12T00:48:56.663Z,0.00
2018-08-12T00:50:01.141Z,0.00
2018-08-12T00:51:07.675Z,0.00
2018-08-12T00:52:12.164Z,0.00
2018-08-12T00:53:17.688Z,0.00
2018-08-12T00:54:24.223Z,0.00
2018-08-12T00:55:28.704Z,0.00
2018-08-12T00:56:35.242Z,0.00
2018-08-12T00:57:39.786Z,0.00
2018-08-12T00:58:45.271Z,0.00
2018-08-12T00:59:51.793Z,0.00
2018-08-12T01:00:56.273Z,0.00
2018-08-12T01:02:02.825Z,0.00
2018-08-12T01:03:07.320Z,0.00
2018-08-12T01:04:12.811Z,0.00
2018-08-12T01:05:19.324Z,0.00
2018-08-12T01:06:23.845Z,0.00
2018-08-12T01:07:30.382Z,0.00
2018-08-12T01:08:34.878Z,0.00
2018-08-12T01:09:40.386Z,0.00
2018-08-12T01:10:46.914Z,0.00
2018-08-12T01:11:51.440Z,0.00
2018-08-12T01:12:57.947Z,0.00
2018-08-12T01:14:02.434Z,0.00
2018-08-12T01:15:07.954Z,0.00
2018-08-12T01:16:14.482Z,0.00
2018-08-12T01:17:18.984Z,0.00
2018-08-12T01:18:25.476Z,0.00
2018-08-12T01:19:29.998Z,0.00
2018-08-12T01:20:35.536Z,0.00
2018-08-12T01:21:42.029Z,0.00
2018-08-12T01:22:46.551Z,0.00
2018-08-12T01:23:53.071Z,0.00
2018-08-12T01:24:57.567Z,0.00
2018-08-12T01:26:03.075Z,0.00
2018-08-12T01:27:09.595Z,0.00
2018-08-12T01:28:14.121Z,0.00
2018-08-12T01:29:20.640Z,0.00
2018-08-12T01:30:25.133Z,0.00
2018-08-12T01:31:30.656Z,0.00
2018-08-12T01:32:37.171Z,0.00
2018-08-12T01:33:41.657Z,0.00
2018-08-12T01:34:49.122Z,0.00
2018-08-12T01:35:52.751Z,0.00
2018-08-12T01:36:58.229Z,0.00
2018-08-12T01:38:04.738Z,0.00
2018-08-12T01:39:09.230Z,0.00
2018-08-12T01:40:15.793Z,0.00
2018-08-12T01:41:20.247Z,0.00
2018-08-12T01:42:25.791Z,0.00
2018-08-12T01:43:32.308Z,0.00
2018-08-12T01:44:36.793Z,0.00
2018-08-12T01:45:43.330Z,0.00
2018-08-12T01:46:47.821Z,0.00
2018-08-12T01:47:53.338Z,0.00
2018-08-12T01:48:59.866Z,0.00
2018-08-12T01:50:04.373Z,0.00
2018-08-12T01:51:10.877Z,0.00
2018-08-12T01:52:15.419Z,0.00
2018-08-12T01:53:20.935Z,0.00
2018-08-12T01:54:27.432Z,0.00
2018-08-12T01:55:31.937Z,0.00
2018-08-12T01:56:38.440Z,0.00
2018-08-12T01:57:42.973Z,0.00
2018-08-12T01:58:48.484Z,0.00
2018-08-12T01:59:54.983Z,0.00
2018-08-12T02:00:59.502Z,0.00
2018-08-12T02:02:06.016Z,0.00
2018-08-12T02:03:10.526Z,0.00
2018-08-12T02:04:16.032Z,0.00
2018-08-12T02:05:22.565Z,0.00
2018-08-12T02:06:27.078Z,0.00
2018-08-12T02:07:33.593Z,0.00
2018-08-12T02:08:38.086Z,0.00
2018-08-12T02:09:43.593Z,0.00
2018-08-12T02:10:50.130Z,0.00
2018-08-12T02:11:54.628Z,0.00
2018-08-12T02:13:01.139Z,0.00
2018-08-12T02:14:05.661Z,0.00
2018-08-12T02:15:11.171Z,0.00
2018-08-12T02:16:17.693Z,0.00
2018-08-12T02:17:22.219Z,0.00
2018-08-12T02:18:28.717Z,0.00
2018-08-12T02:19:33.210Z,0.00
2018-08-12T02:20:38.721Z,0.00
2018-08-12T02:21:45.248Z,0.00
2018-08-12T02:22:49.776Z,0.00
2018-08-12T02:23:56.300Z,0.00
2018-08-12T02:25:00.778Z,0.00
2018-08-12T02:26:06.291Z,0.00
2018-08-12T02:27:12.833Z,0.00
2018-08-12T02:28:17.309Z,0.00
2018-08-12T02:29:23.833Z,0.00
2018-08-12T02:30:28.354Z,0.00
2018-08-12T02:31:33.866Z,0.00
2018-08-12T02:32:40.369Z,0.00
2018-08-12T02:33:44.899Z,0.00
2018-08-12T02:34:51.399Z,0.00
2018-08-12T02:35:55.892Z,0.00
2018-08-12T02:37:01.413Z,0.00
2018-08-12T02:38:07.952Z,0.00
2018-08-12T02:39:12.442Z,0.00
2018-08-12T02:40:18.986Z,0.00
2018-08-12T02:41:23.491Z,0.00
2018-08-12T02:42:28.970Z,0.00
2018-08-12T02:43:35.503Z,0.00
2018-08-12T02:44:40.009Z,0.00
2018-08-12T02:45:47.492Z,0.00
2018-08-12T02:46:51.054Z,0.00
2018-08-12T02:47:56.535Z,0.00
2018-08-12T02:49:03.065Z,0.00
2018-08-12T02:50:07.559Z,0.00
2018-08-12T02:51:14.099Z,0.00
2018-08-12T02:52:18.596Z,0.00
2018-08-12T02:53:24.100Z,0.00
2018-08-12T02:54:30.634Z,0.00
2018-08-12T02:55:35.128Z,0.00
2018-08-12T02:56:41.675Z,0.00
2018-08-12T02:57:46.150Z,0.00
2018-08-12T02:58:51.676Z,0.00
2018-08-12T02:59:58.193Z,0.00
2018-08-12T03:01:02.699Z,0.00
2018-08-12T03:02:09.217Z,0.00
2018-08-12T03:03:13.735Z,0.00
2018-08-12T03:04:19.217Z,0.00
2018-08-12T03:05:25.763Z,0.00
2018-08-12T03:06:30.275Z,0.00
2018-08-12T03:07:36.773Z,0.00
2018-08-12T03:08:41.277Z,0.00
2018-08-12T03:09:46.780Z,0.00
2018-08-12T03:10:53.323Z,0.00
2018-08-12T03:11:57.809Z,0.00
2018-08-12T03:13:04.345Z,0.00
2018-08-12T03:14:08.864Z,0.00
2018-08-12T03:15:14.365Z,0.00
2018-08-12T03:16:20.885Z,0.00
2018-08-12T03:17:25.388Z,0.00
2018-08-12T03:18:31.906Z,0.00
2018-08-12T03:19:36.402Z,0.00
2018-08-12T03:20:41.928Z,0.00
2018-08-12T03:21:48.450Z,0.00
2018-08-12T03:22:52.942Z,0.00
2018-08-12T03:23:59.477Z,0.00
2018-08-12T03:25:03.968Z,0.00
2018-08-12T03:26:09.483Z,0.00
2018-08-12T03:27:16.007Z,0.00
2018-08-12T03:28:20.503Z,0.00
2018-08-12T03:29:27.039Z,0.00
2018-08-12T03:30:31.549Z,0.00
2018-08-12T03:31:37.068Z,0.00
2018-08-12T03:32:43.561Z,0.00
2018-08-12T03:33:48.062Z,0.00
2018-08-12T03:34:54.602Z,0.00
2018-08-12T03:35:59.102Z,0.00
2018-08-12T03:37:04.603Z,0.00
2018-08-12T03:38:11.133Z,0.00
2018-08-12T03:39:15.651Z,0.00
2018-08-12T03:40:22.149Z,0.00
2018-08-12T03:41:26.660Z,0.00
2018-08-12T03:42:32.187Z,0.00
2018-08-12T03:43:38.708Z,0.00
2018-08-12T03:44:43.205Z,0.00
2018-08-12T03:45:49.723Z,0.00
2018-08-12T03:46:54.227Z,0.00
2018-08-12T03:47:59.747Z,0.00
2018-08-12T03:49:06.272Z,0.00
2018-08-12T03:50:10.752Z,0.00
2018-08-12T03:51:17.295Z,0.00
2018-08-12T03:52:21.779Z,4.00
2018-08-12T03:53:27.324Z,4.00
2018-08-12T03:54:33.823Z,0.00
2018-08-12T03:55:38.329Z,0.00
2018-08-12T03:56:44.856Z,0.00
2018-08-12T03:57:49.345Z,0.00
2018-08-12T03:58:54.853Z,4.00
2018-08-12T04:00:01.378Z,4.00
2018-08-12T04:01:05.892Z,4.00
2018-08-12T04:02:12.423Z,4.00
2018-08-12T04:03:16.902Z,4.00
2018-08-12T04:04:22.426Z,4.00
2018-08-12T04:05:28.949Z,8.00
2018-08-12T04:06:33.452Z,4.00
2018-08-12T04:07:39.964Z,8.00
2018-08-12T04:08:44.489Z,4.00
2018-08-12T04:09:49.967Z,8.00
2018-08-12T04:10:56.526Z,8.00
2018-08-12T04:12:01.027Z,8.00
2018-08-12T04:13:07.541Z,8.00
2018-08-12T04:14:12.026Z,12.00
2018-08-12T04:15:17.547Z,12.00
2018-08-12T04:16:24.077Z,12.00
2018-08-12T04:17:28.580Z,16.00
2018-08-12T04:18:35.094Z,16.00
2018-08-12T04:19:39.597Z,16.00
2018-08-12T04:20:45.117Z,20.00
2018-08-12T04:21:51.643Z,20.00
2018-08-12T04:22:56.149Z,24.00
2018-08-12T04:24:02.665Z,24.00
2018-08-12T04:25:07.167Z,28.00
2018-08-12T04:26:12.679Z,28.00
2018-08-12T04:27:19.195Z,28.00
2018-08-12T04:28:23.711Z,28.00
2018-08-12T04:29:30.229Z,28.00
2018-08-12T04:30:34.730Z,32.00
2018-08-12T04:31:40.253Z,32.00
2018-08-12T04:32:46.767Z,40.00
2018-08-12T04:33:51.271Z,40.00
2018-08-12T04:34:57.782Z,40.00
2018-08-12T04:36:02.300Z,44.00
2018-08-12T04:37:07.811Z,44.00
2018-08-12T04:38:14.320Z,48.00
2018-08-12T04:39:18.823Z,52.00
2018-08-12T04:40:25.343Z,56.00
2018-08-12T04:41:29.847Z,60.00
2018-08-12T04:42:35.376Z,64.00
2018-08-12T04:43:41.883Z,68.00
2018-08-12T04:44:46.399Z,72.00
2018-08-12T04:45:52.930Z,80.00
2018-08-12T04:46:57.419Z,84.00
2018-08-12T04:48:02.942Z,84.00
2018-08-12T04:49:09.442Z,88.00
2018-08-12T04:50:13.956Z,92.00
2018-08-12T04:51:20.476Z,96.00
2018-08-12T04:52:24.981Z,92.00
2018-08-12T04:53:30.492Z,92.00
2018-08-12T04:54:37.016Z,96.00
2018-08-12T04:55:41.524Z,100.00
2018-08-12T04:56:48.043Z,108.00
2018-08-12T04:57:52.543Z,112.00
2018-08-12T04:58:58.069Z,108.00
2018-08-12T05:00:04.568Z,108.00
2018-08-12T05:01:09.093Z,112.00
2018-08-12T05:02:15.611Z,116.00
2018-08-12T05:03:20.101Z,116.00
2018-08-12T05:04:25.628Z,120.00
2018-08-12T05:05:32.135Z,120.00
2018-08-12T05:06:36.664Z,124.00
2018-08-12T05:07:43.173Z,124.00
2018-08-12T05:08:47.691Z,128.00
2018-08-12T05:09:53.176Z,132.00
2018-08-12T05:10:59.712Z,128.00
2018-08-12T05:12:04.230Z,128.00
2018-08-12T05:13:10.721Z,132.00
2018-08-12T05:14:15.227Z,132.00
2018-08-12T05:15:20.751Z,132.00
2018-08-12T05:16:27.284Z,132.00
2018-08-12T05:17:31.777Z,136.00
2018-08-12T05:18:38.292Z,136.00
2018-08-12T05:19:42.806Z,136.00
2018-08-12T05:20:48.314Z,140.00
2018-08-12T05:21:54.827Z,140.00
2018-08-12T05:22:59.360Z,144.00
2018-08-12T05:24:05.880Z,140.00
2018-08-12T05:25:10.362Z,144.00
2018-08-12T05:26:15.877Z,140.00
2018-08-12T05:27:22.412Z,140.00
2018-08-12T05:28:26.907Z,144.00
2018-08-12T05:29:33.432Z,144.00
2018-08-12T05:30:37.932Z,140.00
2018-08-12T05:31:43.462Z,144.00
2018-08-12T05:32:49.973Z,144.00
2018-08-12T05:33:54.461Z,140.00
2018-08-12T05:35:01.016Z,136.00
2018-08-12T05:36:05.501Z,136.00
2018-08-12T05:37:11.011Z,132.00
2018-08-12T05:38:17.533Z,128.00
2018-08-12T05:39:22.048Z,136.00
2018-08-12T05:40:28.569Z,132.00
2018-08-12T05:41:33.069Z,136.00
2018-08-12T05:42:38.598Z,132.00
2018-08-12T05:43:45.095Z,128.00
2018-08-12T05:44:49.603Z,128.00
2018-08-12T05:45:56.132Z,128.00
2018-08-12T05:47:00.654Z,128.00
2018-08-12T05:48:06.151Z,128.00
2018-08-12T05:49:12.683Z,128.00
2018-08-12T05:50:17.178Z,128.00
2018-08-12T05:51:23.759Z,128.00
2018-08-12T05:52:28.204Z,124.00
2018-08-12T05:53:33.723Z,120.00
2018-08-12T05:54:40.294Z,128.00
2018-08-12T05:55:44.732Z,124.00
2018-08-12T05:56:51.254Z,124.00
2018-08-12T05:57:55.789Z,124.00
2018-08-12T05:59:01.285Z,124.00
2018-08-12T06:00:07.806Z,124.00
2018-08-12T06:01:12.318Z,128.00
2018-08-12T06:02:18.835Z,128.00
2018-08-12T06:03:23.349Z,128.00
2018-08-12T06:04:28.860Z,132.00
2018-08-12T06:05:35.382Z,132.00
2018-08-12T06:06:39.891Z,132.00
2018-08-12T06:07:46.417Z,132.00
2018-08-12T06:08:50.950Z,136.00
2018-08-12T06:09:56.421Z,136.00
2018-08-12T06:11:02.961Z,140.00
2018-08-12T06:12:07.454Z,140.00
2018-08-12T06:13:13.983Z,140.00
2018-08-12T06:14:18.489Z,140.00
2018-08-12T06:15:23.987Z,140.00
2018-08-12T06:16:30.530Z,136.00
2018-08-12T06:17:35.018Z,136.00
2018-08-12T06:18:41.555Z,136.00
2018-08-12T06:19:46.035Z,136.00
2018-08-12T06:20:51.598Z,136.00
2018-08-12T06:21:58.090Z,144.00
2018-08-12T06:23:02.608Z,152.00
2018-08-12T06:24:09.136Z,156.00
2018-08-12T06:25:13.636Z,164.00
2018-08-12T06:26:19.160Z,176.00
2018-08-12T06:27:25.678Z,188.00
2018-08-12T06:28:30.185Z,192.00
2018-08-12T06:29:36.722Z,196.00
2018-08-12T06:30:41.218Z,204.00
2018-08-12T06:31:46.714Z,212.00
2018-08-12T06:32:53.244Z,212.00
2018-08-12T06:33:57.771Z,216.00
2018-08-12T06:35:04.278Z,216.00
2018-08-12T06:36:08.780Z,212.00
2018-08-12T06:37:14.297Z,212.00
2018-08-12T06:38:20.810Z,208.00
2018-08-12T06:39:25.308Z,212.00
2018-08-12T06:40:31.848Z,216.00
2018-08-12T06:41:36.331Z,220.00
2018-08-12T06:42:41.856Z,228.00
2018-08-12T06:43:48.382Z,232.00
2018-08-12T06:44:52.902Z,236.00
2018-08-12T06:45:59.440Z,244.00
2018-08-12T06:47:03.960Z,248.00
2018-08-12T06:48:09.437Z,256.00
2018-08-12T06:49:15.979Z,260.00
2018-08-12T06:50:20.482Z,264.00
2018-08-12T06:51:26.980Z,264.00
2018-08-12T06:52:31.484Z,268.00
2018-08-12T06:53:37.028Z,272.00
2018-08-12T06:54:43.542Z,272.00
2018-08-12T06:55:48.046Z,280.00
2018-08-12T06:56:54.621Z,280.00
2018-08-12T06:57:59.064Z,276.00
2018-08-12T06:59:04.588Z,280.00
2018-08-12T07:00:11.113Z,292.00
2018-08-12T07:01:15.625Z,292.00
2018-08-12T07:02:22.169Z,280.00
2018-08-12T07:03:26.647Z,288.00
2018-08-12T07:04:32.176Z,308.00
2018-08-12T07:05:38.672Z,312.00
2018-08-12T07:06:43.200Z,312.00
2018-08-12T07:07:49.747Z,312.00
2018-08-12T07:08:54.233Z,308.00
2018-08-12T07:09:59.741Z,312.00
2018-08-12T07:11:06.277Z,316.00
2018-08-12T07:12:10.774Z,300.00
2018-08-12T07:13:17.321Z,312.00
2018-08-12T07:14:21.865Z,312.00
2018-08-12T07:15:27.347Z,316.00
2018-08-12T07:16:33.855Z,312.00
2018-08-12T07:17:38.354Z,312.00
2018-08-12T07:18:44.892Z,304.00
2018-08-12T07:19:49.408Z,320.00
2018-08-12T07:20:54.910Z,308.00
2018-08-12T07:22:01.450Z,320.00
2018-08-12T07:23:05.947Z,332.00
2018-08-12T07:24:12.477Z,308.00
2018-08-12T07:25:16.971Z,320.00
2018-08-12T07:26:22.488Z,316.00
2018-08-12T07:27:29.011Z,332.00
2018-08-12T07:28:33.510Z,308.00
2018-08-12T07:29:40.067Z,300.00
2018-08-12T07:30:44.550Z,288.00
2018-08-12T07:31:50.069Z,272.00
2018-08-12T07:32:56.623Z,268.00
2018-08-12T07:34:01.091Z,260.00
2018-08-12T07:35:07.626Z,256.00
2018-08-12T07:36:12.136Z,236.00
2018-08-12T07:37:17.641Z,228.00
2018-08-12T07:38:24.175Z,232.00
2018-08-12T07:39:28.681Z,236.00
2018-08-12T07:40:35.225Z,264.00
2018-08-12T07:41:39.733Z,252.00
2018-08-12T07:42:45.243Z,252.00
2018-08-12T07:43:51.750Z,276.00
2018-08-12T07:44:56.257Z,252.00
2018-08-12T07:46:02.802Z,288.00
2018-08-12T07:47:07.303Z,260.00
2018-08-12T07:48:12.826Z,236.00
2018-08-12T07:49:19.357Z,236.00
2018-08-12T07:50:23.854Z,240.00
2018-08-12T07:51:30.405Z,244.00
2018-08-12T07:52:34.883Z,272.00
2018-08-12T07:53:40.411Z,272.00
2018-08-12T07:54:46.940Z,292.00
2018-08-12T07:55:51.462Z,316.00
2018-08-12T07:56:57.949Z,376.00
2018-08-12T07:58:02.472Z,368.00
2018-08-12T07:59:07.996Z,372.00
2018-08-12T08:00:14.519Z,340.00
2018-08-12T08:01:19.026Z,396.00
2018-08-12T08:02:25.538Z,384.00
2018-08-12T08:03:30.049Z,372.00
2018-08-12T08:04:35.598Z,368.00
2018-08-12T08:05:42.110Z,376.00
2018-08-12T08:06:46.617Z,380.00
2018-08-12T08:07:53.155Z,380.00
2018-08-12T08:08:57.642Z,380.00
2018-08-12T08:10:03.157Z,380.00
2018-08-12T08:11:09.690Z,376.00
2018-08-12T08:12:14.181Z,352.00
2018-08-12T08:13:20.727Z,360.00
2018-08-12T08:14:25.264Z,376.00
2018-08-12T08:15:30.768Z,376.00
2018-08-12T08:16:37.281Z,368.00
2018-08-12T08:17:41.766Z,404.00
2018-08-12T08:18:48.320Z,364.00
2018-08-12T08:19:52.911Z,400.00
2018-08-12T08:20:58.352Z,400.00
2018-08-12T08:22:04.891Z,388.00
2018-08-12T08:23:09.357Z,388.00
2018-08-12T08:24:15.911Z,376.00
2018-08-12T08:25:20.436Z,376.00
2018-08-12T08:26:25.971Z,336.00
2018-08-12T08:27:32.438Z,344.00
2018-08-12T08:28:36.948Z,324.00
2018-08-12T08:29:43.484Z,352.00
2018-08-12T08:30:47.986Z,324.00
2018-08-12T08:31:53.698Z,344.00
2018-08-12T08:33:00.028Z,316.00
2018-08-12T08:34:04.572Z,340.00
2018-08-12T08:35:11.085Z,356.00
2018-08-12T08:36:15.594Z,340.00
2018-08-12T08:37:21.103Z,352.00
2018-08-12T08:38:27.653Z,288.00
2018-08-12T08:39:32.155Z,356.00
2018-08-12T08:40:38.674Z,356.00
2018-08-12T08:41:43.186Z,368.00
2018-08-12T08:42:48.699Z,376.00
2018-08-12T08:43:55.227Z,372.00
2018-08-12T08:44:59.720Z,372.00
2018-08-12T08:46:06.265Z,380.00
2018-08-12T08:47:10.743Z,376.00
2018-08-12T08:48:16.305Z,380.00
2018-08-12T08:49:22.801Z,388.00
2018-08-12T08:50:27.302Z,392.00
2018-08-12T08:51:33.872Z,396.00
2018-08-12T08:52:38.360Z,400.00
2018-08-12T08:53:43.859Z,404.00
2018-08-12T08:54:50.410Z,404.00
2018-08-12T08:55:54.985Z,412.00
2018-08-12T08:57:01.444Z,412.00
2018-08-12T08:58:05.932Z,416.00
2018-08-12T08:59:11.475Z,412.00
2018-08-12T09:00:17.983Z,412.00
2018-08-12T09:01:22.517Z,404.00
2018-08-12T09:02:29.037Z,412.00
2018-08-12T09:03:33.543Z,404.00
2018-08-12T09:04:39.060Z,372.00
2018-08-12T09:05:45.612Z,408.00
2018-08-12T09:06:50.111Z,408.00
2018-08-12T09:07:56.694Z,408.00
2018-08-12T09:09:01.274Z,400.00
2018-08-12T09:10:06.658Z,384.00
2018-08-12T09:11:13.186Z,376.00
2018-08-12T09:12:17.690Z,380.00
2018-08-12T09:13:24.208Z,380.00
2018-08-12T09:14:28.703Z,376.00
2018-08-12T09:15:34.242Z,388.00
2018-08-12T09:16:40.767Z,392.00
2018-08-12T09:17:45.285Z,352.00
2018-08-12T09:18:51.795Z,364.00
2018-08-12T09:19:56.289Z,400.00
2018-08-12T09:21:01.864Z,400.00
2018-08-12T09:22:08.351Z,396.00
2018-08-12T09:23:12.875Z,368.00
2018-08-12T09:24:19.404Z,400.00
2018-08-12T09:25:23.905Z,396.00
2018-08-12T09:26:29.457Z,400.00
2018-08-12T09:27:35.977Z,400.00
2018-08-12T09:28:40.465Z,400.00
2018-08-12T09:29:46.988Z,404.00
2018-08-12T09:30:51.480Z,404.00
2018-08-12T09:31:57.041Z,412.00
2018-08-12T09:33:03.554Z,416.00
2018-08-12T09:34:08.064Z,424.00
2018-08-12T09:35:14.599Z,428.00
2018-08-12T09:36:19.092Z,472.00
2018-08-12T09:37:24.627Z,464.00
2018-08-12T09:38:31.151Z,452.00
2018-08-12T09:39:35.632Z,456.00
2018-08-12T09:40:42.202Z,460.00
2018-08-12T09:41:46.707Z,456.00
2018-08-12T09:42:52.187Z,456.00
2018-08-12T09:43:58.724Z,452.00
2018-08-12T09:45:03.245Z,464.00
2018-08-12T09:46:09.774Z,468.00
2018-08-12T09:47:14.287Z,480.00
2018-08-12T09:48:19.814Z,500.00
2018-08-12T09:49:26.318Z,540.00
2018-08-12T09:50:30.872Z,572.00
2018-08-12T09:51:37.454Z,604.00
2018-08-12T09:52:41.887Z,636.00
2018-08-12T09:53:47.399Z,652.00
2018-08-12T09:54:53.925Z,660.00
2018-08-12T09:55:58.426Z,648.00
2018-08-12T09:57:04.966Z,600.00
2018-08-12T09:58:09.485Z,600.00
2018-08-12T09:59:14.999Z,600.00
2018-08-12T10:00:21.645Z,532.00
2018-08-12T10:01:26.075Z,496.00
2018-08-12T10:02:32.576Z,596.00
2018-08-12T10:03:37.061Z,504.00
2018-08-12T10:04:42.599Z,552.00
2018-08-12T10:05:49.137Z,524.00
2018-08-12T10:06:53.629Z,604.00
2018-08-12T10:08:00.169Z,608.00
2018-08-12T10:09:04.667Z,596.00
2018-08-12T10:10:10.226Z,588.00
2018-08-12T10:11:16.735Z,576.00
2018-08-12T10:12:21.246Z,588.00
2018-08-12T10:13:27.764Z,588.00
2018-08-12T10:14:32.257Z,592.00
2018-08-12T10:15:37.891Z,596.00
2018-08-12T10:16:44.359Z,592.00
2018-08-12T10:17:48.833Z,568.00
2018-08-12T10:18:55.357Z,496.00
2018-08-12T10:19:59.880Z,540.00
2018-08-12T10:21:05.387Z,576.00
2018-08-12T10:22:11.933Z,596.00
2018-08-12T10:23:16.413Z,548.00
2018-08-12T10:24:22.964Z,564.00
2018-08-12T10:25:27.455Z,580.00
2018-08-12T10:26:32.998Z,588.00
2018-08-12T10:27:39.505Z,584.00
2018-08-12T10:28:44.055Z,584.00
2018-08-12T10:29:50.554Z,576.00
2018-08-12T10:30:55.070Z,580.00
2018-08-12T10:32:00.578Z,588.00
2018-08-12T10:33:07.131Z,592.00
2018-08-12T10:34:11.633Z,588.00
2018-08-12T10:35:18.174Z,580.00
2018-08-12T10:36:22.657Z,564.00
2018-08-12T10:37:28.229Z,572.00
2018-08-12T10:38:34.695Z,572.00
2018-08-12T10:39:39.245Z,576.00
2018-08-12T10:40:45.766Z,576.00
2018-08-12T10:41:50.256Z,588.00
2018-08-12T10:42:55.770Z,592.00
2018-08-12T10:44:02.330Z,584.00
2018-08-12T10:45:06.814Z,604.00
2018-08-12T10:46:13.386Z,600.00
2018-08-12T10:47:17.869Z,604.00
2018-08-12T10:48:23.452Z,604.00
2018-08-12T10:49:29.930Z,604.00
2018-08-12T10:50:34.435Z,604.00
2018-08-12T10:51:40.989Z,624.00
2018-08-12T10:52:45.450Z,648.00
2018-08-12T10:53:51.000Z,656.00
2018-08-12T10:54:57.510Z,676.00
2018-08-12T10:56:02.020Z,712.00
2018-08-12T10:57:08.596Z,736.00
2018-08-12T10:58:13.093Z,728.00
2018-08-12T10:59:18.652Z,740.00
2018-08-12T11:00:25.139Z,756.00
2018-08-12T11:01:29.653Z,792.00
2018-08-12T11:02:36.170Z,788.00
2018-08-12T11:03:40.655Z,800.00
2018-08-12T11:04:46.218Z,756.00
2018-08-12T11:05:52.719Z,780.00
2018-08-12T11:06:57.247Z,764.00
2018-08-12T11:08:03.766Z,772.00
2018-08-12T11:09:08.282Z,728.00
2018-08-12T11:10:13.808Z,752.00
2018-08-12T11:11:20.322Z,748.00
2018-08-12T11:12:24.898Z,756.00
2018-08-12T11:13:31.383Z,756.00
2018-08-12T11:14:35.871Z,776.00
2018-08-12T11:15:41.411Z,768.00
2018-08-12T11:16:47.932Z,756.00
2018-08-12T11:17:52.466Z,704.00
2018-08-12T11:18:58.967Z,668.00
2018-08-12T11:20:03.487Z,636.00
2018-08-12T11:21:09.022Z,636.00
2018-08-12T11:22:15.521Z,656.00
2018-08-12T11:23:20.036Z,648.00
2018-08-12T11:24:26.560Z,684.00
2018-08-12T11:25:31.088Z,752.00
2018-08-12T11:26:36.609Z,728.00
2018-08-12T11:27:43.133Z,756.00
2018-08-12T11:28:47.661Z,696.00
2018-08-12T11:29:54.205Z,832.00
2018-08-12T11:30:58.698Z,840.00
2018-08-12T11:32:04.243Z,852.00
2018-08-12T11:33:10.750Z,868.00
2018-08-12T11:34:15.267Z,892.00
2018-08-12T11:35:21.802Z,892.00
2018-08-12T11:36:26.292Z,892.00
2018-08-12T11:37:31.840Z,884.00
2018-08-12T11:38:38.352Z,880.00
2018-08-12T11:39:42.853Z,868.00
2018-08-12T11:40:49.431Z,860.00
2018-08-12T11:41:53.922Z,844.00
2018-08-12T11:42:59.436Z,852.00
2018-08-12T11:44:05.953Z,872.00
2018-08-12T11:45:10.472Z,868.00
2018-08-12T11:46:17.022Z,852.00
2018-08-12T11:47:21.544Z,860.00
2018-08-12T11:48:27.042Z,872.00
2018-08-12T11:49:33.576Z,880.00
2018-08-12T11:50:38.070Z,920.00
2018-08-12T11:51:44.612Z,944.00
2018-08-12T11:52:49.132Z,940.00
2018-08-12T11:53:54.641Z,972.00
2018-08-12T11:55:01.176Z,968.00
2018-08-12T11:56:05.675Z,960.00
2018-08-12T11:57:12.236Z,964.00
2018-08-12T11:58:16.719Z,964.00
2018-08-12T11:59:22.267Z,956.00
2018-08-12T12:00:28.794Z,920.00
2018-08-12T12:01:33.291Z,908.00
2018-08-12T12:02:39.818Z,896.00
2018-08-12T12:03:44.357Z,912.00
2018-08-12T12:04:49.916Z,908.00
2018-08-12T12:05:56.401Z,940.00
2018-08-12T12:07:00.905Z,932.00
2018-08-12T12:08:07.429Z,948.00
2018-08-12T12:09:11.939Z,952.00
2018-08-12T12:10:17.453Z,988.00
2018-08-12T12:11:24.007Z,964.00
2018-08-12T12:12:28.513Z,928.00
2018-08-12T12:13:35.070Z,944.00
2018-08-12T12:14:39.567Z,940.00
2018-08-12T12:15:45.074Z,948.00
2018-08-12T12:16:51.597Z,948.00
2018-08-12T12:17:56.106Z,964.00
2018-08-12T12:19:02.668Z,1008.00
2018-08-12T12:20:07.174Z,1036.00
2018-08-12T12:21:12.672Z,1048.00
2018-08-12T12:22:19.228Z,1056.00
2018-08-12T12:23:24.274Z,1056.00
2018-08-12T12:24:30.257Z,1080.00
2018-08-12T12:25:34.758Z,1084.00
2018-08-12T12:26:40.297Z,1080.00
2018-08-12T12:27:46.853Z,1060.00
2018-08-12T12:28:51.335Z,1044.00
2018-08-12T12:29:57.887Z,1044.00
2018-08-12T12:31:02.354Z,1056.00
2018-08-12T12:32:07.942Z,1052.00
2018-08-12T12:33:14.465Z,1052.00
2018-08-12T12:34:18.932Z,1060.00
2018-08-12T12:35:25.563Z,1064.00
2018-08-12T12:36:30.012Z,1076.00
2018-08-12T12:37:35.524Z,1112.00
2018-08-12T12:38:42.070Z,1140.00
2018-08-12T12:39:46.550Z,1164.00
2018-08-12T12:40:53.087Z,1168.00
2018-08-12T12:41:57.583Z,1176.00
2018-08-12T12:43:03.165Z,1144.00
2018-08-12T12:44:09.655Z,1168.00
2018-08-12T12:45:14.164Z,1148.00
2018-08-12T12:46:20.697Z,1156.00
2018-08-12T12:47:25.201Z,1152.00
2018-08-12T12:48:30.754Z,1140.00
2018-08-12T12:49:37.310Z,1112.00
2018-08-12T12:50:41.871Z,1116.00
2018-08-12T12:51:48.323Z,1112.00
2018-08-12T12:52:52.818Z,1120.00
2018-08-12T12:53:58.355Z,1124.00
2018-08-12T12:55:04.875Z,1136.00
2018-08-12T12:56:09.397Z,1116.00
2018-08-12T12:57:15.935Z,1128.00
2018-08-12T12:58:20.423Z,1100.00
2018-08-12T12:59:25.975Z,1056.00
2018-08-12T13:00:32.496Z,1032.00
2018-08-12T13:01:36.998Z,1032.00
2018-08-12T13:02:43.546Z,996.00
2018-08-12T13:03:48.046Z,976.00
2018-08-12T13:04:53.565Z,956.00
2018-08-12T13:06:00.108Z,960.00
2018-08-12T13:07:04.605Z,976.00
2018-08-12T13:08:11.149Z,972.00
2018-08-12T13:09:15.686Z,952.00
2018-08-12T13:10:21.199Z,952.00
2018-08-12T13:11:27.732Z,952.00
2018-08-12T13:12:32.269Z,952.00
2018-08-12T13:13:38.777Z,956.00
2018-08-12T13:14:43.266Z,984.00
2018-08-12T13:15:48.795Z,980.00
2018-08-12T13:16:55.332Z,984.00
2018-08-12T13:17:59.849Z,1000.00
2018-08-12T13:19:06.392Z,984.00
2018-08-12T13:20:10.899Z,992.00
2018-08-12T13:21:16.460Z,1008.00
2018-08-12T13:22:22.939Z,1000.00
2018-08-12T13:23:27.480Z,968.00
2018-08-12T13:24:34.010Z,984.00
2018-08-12T13:25:38.505Z,976.00
2018-08-12T13:26:44.014Z,948.00
2018-08-12T13:27:50.571Z,944.00
2018-08-12T13:28:55.112Z,932.00
2018-08-12T13:30:01.623Z,944.00
2018-08-12T13:31:06.123Z,940.00
2018-08-12T13:32:11.639Z,944.00
2018-08-12T13:33:18.182Z,928.00
2018-08-12T13:34:22.696Z,940.00
2018-08-12T13:35:29.234Z,928.00
2018-08-12T13:36:33.716Z,880.00
2018-08-12T13:37:39.295Z,860.00
2018-08-12T13:38:45.792Z,824.00
2018-08-12T13:39:50.319Z,836.00
2018-08-12T13:40:56.853Z,828.00
2018-08-12T13:42:01.347Z,812.00
2018-08-12T13:43:06.848Z,804.00
2018-08-12T13:44:13.418Z,816.00
2018-08-12T13:45:17.918Z,788.00
2018-08-12T13:46:24.432Z,764.00
2018-08-12T13:47:28.936Z,724.00
2018-08-12T13:48:34.467Z,700.00
2018-08-12T13:49:41.004Z,680.00
2018-08-12T13:50:45.523Z,660.00
2018-08-12T13:51:52.054Z,644.00
2018-08-12T13:52:56.559Z,624.00